sensor_id;sensor_type;location;lat;lon;timestamp;P1;durP1;ratioP1;P2;durP2;ratioP2
74309;SDS011;62722;51.142;17.052;2023-03-19T00:01:17;28.30;;;12.13;;
74309;SDS011;62722;51.142;17.052;2023-03-19T00:03:46;24.17;;;11.55;;
74309;SDS011;62722;51.142;17.052;2023-03-19T00:06:13;25.08;;;11.95;;
74309;SDS011;62722;51.142;17.052;2023-03-19T00:08:41;24.83;;;11.20;;
74309;SDS011;62722;51.142;17.052;2023-03-19T00:11:09;25.08;;;10.75;;
74309;SDS011;62722;51.142;17.052;2023-03-19T00:13:39;22.35;;;10.32;;
74309;SDS011;62722;51.142;17.052;2023-03-19T00:16:07;21.38;;;9.73;;
74309;SDS011;62722;51.142;17.052;2023-03-19T00:18:34;23.00;;;10.30;;
74309;SDS011;62722;51.142;17.052;2023-03-19T00:21:03;28.52;;;12.18;;
74309;SDS011;62722;51.142;17.052;2023-03-19T00:23:32;26.17;;;11.52;;
74309;SDS011;62722;51.142;17.052;2023-03-19T00:26:01;21.20;;;9.70;;
74309;SDS011;62722;51.142;17.052;2023-03-19T00:28:29;19.02;;;9.32;;
74309;SDS011;62722;51.142;17.052;2023-03-19T00:30:57;23.17;;;9.88;;
74309;SDS011;62722;51.142;17.052;2023-03-19T00:33:33;18.85;;;8.98;;
74309;SDS011;62722;51.142;17.052;2023-03-19T00:36:00;23.98;;;10.35;;
74309;SDS011;62722;51.142;17.052;2023-03-19T00:38:29;20.00;;;9.52;;
74309;SDS011;62722;51.142;17.052;2023-03-19T00:40:57;21.52;;;9.43;;
74309;SDS011;62722;51.142;17.052;2023-03-19T00:43:24;19.73;;;9.27;;
74309;SDS011;62722;51.142;17.052;2023-03-19T00:45:53;18.52;;;8.30;;
74309;SDS011;62722;51.142;17.052;2023-03-19T00:48:21;22.20;;;9.13;;
74309;SDS011;62722;51.142;17.052;2023-03-19T00:50:49;23.35;;;9.30;;
74309;SDS011;62722;51.142;17.052;2023-03-19T00:53:17;23.05;;;9.82;;
74309;SDS011;62722;51.142;17.052;2023-03-19T00:55:46;20.67;;;9.40;;
74309;SDS011;62722;51.142;17.052;2023-03-19T00:58:14;22.48;;;9.50;;
74309;SDS011;62722;51.142;17.052;2023-03-19T01:00:42;20.98;;;9.23;;
74309;SDS011;62722;51.142;17.052;2023-03-19T01:03:10;23.05;;;10.00;;
74309;SDS011;62722;51.142;17.052;2023-03-19T01:05:39;21.27;;;9.10;;
74309;SDS011;62722;51.142;17.052;2023-03-19T01:08:08;18.88;;;8.40;;
74309;SDS011;62722;51.142;17.052;2023-03-19T01:10:37;19.73;;;9.77;;
74309;SDS011;62722;51.142;17.052;2023-03-19T01:13:06;19.27;;;8.90;;
74309;SDS011;62722;51.142;17.052;2023-03-19T01:15:34;23.60;;;9.27;;
74309;SDS011;62722;51.142;17.052;2023-03-19T01:18:02;19.48;;;9.50;;
74309;SDS011;62722;51.142;17.052;2023-03-19T01:20:30;17.90;;;8.20;;
74309;SDS011;62722;51.142;17.052;2023-03-19T01:22:58;21.92;;;9.68;;
74309;SDS011;62722;51.142;17.052;2023-03-19T01:25:27;16.65;;;8.80;;
74309;SDS011;62722;51.142;17.052;2023-03-19T01:27:56;22.05;;;8.82;;
74309;SDS011;62722;51.142;17.052;2023-03-19T01:30:26;17.67;;;8.57;;
74309;SDS011;62722;51.142;17.052;2023-03-19T01:32:53;19.30;;;9.23;;
74309;SDS011;62722;51.142;17.052;2023-03-19T01:35:21;20.73;;;8.93;;
74309;SDS011;62722;51.142;17.052;2023-03-19T01:37:48;17.45;;;8.73;;
74309;SDS011;62722;51.142;17.052;2023-03-19T01:40:17;21.00;;;9.48;;
74309;SDS011;62722;51.142;17.052;2023-03-19T01:42:51;23.42;;;10.75;;
74309;SDS011;62722;51.142;17.052;2023-03-19T01:45:35;22.67;;;9.98;;
74309;SDS011;62722;51.142;17.052;2023-03-19T01:48:04;18.55;;;9.48;;
74309;SDS011;62722;51.142;17.052;2023-03-19T01:50:34;20.80;;;9.63;;
74309;SDS011;62722;51.142;17.052;2023-03-19T01:53:12;26.38;;;11.60;;
74309;SDS011;62722;51.142;17.052;2023-03-19T01:55:46;25.85;;;10.25;;
74309;SDS011;62722;51.142;17.052;2023-03-19T01:58:14;22.80;;;10.63;;
74309;SDS011;62722;51.142;17.052;2023-03-19T02:00:43;22.35;;;10.73;;
74309;SDS011;62722;51.142;17.052;2023-03-19T02:03:11;22.30;;;11.82;;
74309;SDS011;62722;51.142;17.052;2023-03-19T02:05:40;27.40;;;11.32;;
74309;SDS011;62722;51.142;17.052;2023-03-19T02:08:10;21.30;;;10.48;;
74309;SDS011;62722;51.142;17.052;2023-03-19T02:10:42;25.33;;;11.52;;
74309;SDS011;62722;51.142;17.052;2023-03-19T02:13:12;25.90;;;11.48;;
74309;SDS011;62722;51.142;17.052;2023-03-19T02:15:40;27.83;;;11.48;;
74309;SDS011;62722;51.142;17.052;2023-03-19T02:18:09;23.58;;;10.80;;
74309;SDS011;62722;51.142;17.052;2023-03-19T02:20:43;25.52;;;11.85;;
74309;SDS011;62722;51.142;17.052;2023-03-19T02:23:19;20.85;;;10.23;;
74309;SDS011;62722;51.142;17.052;2023-03-19T02:25:57;25.35;;;11.70;;
74309;SDS011;62722;51.142;17.052;2023-03-19T02:28:30;25.88;;;11.55;;
74309;SDS011;62722;51.142;17.052;2023-03-19T02:30:59;26.70;;;11.93;;
74309;SDS011;62722;51.142;17.052;2023-03-19T02:33:28;27.63;;;12.02;;
74309;SDS011;62722;51.142;17.052;2023-03-19T02:35:58;30.10;;;12.43;;
74309;SDS011;62722;51.142;17.052;2023-03-19T02:38:27;23.17;;;11.88;;
74309;SDS011;62722;51.142;17.052;2023-03-19T02:41:00;24.98;;;11.80;;
74309;SDS011;62722;51.142;17.052;2023-03-19T02:43:30;24.90;;;12.35;;
74309;SDS011;62722;51.142;17.052;2023-03-19T02:45:59;25.77;;;11.88;;
74309;SDS011;62722;51.142;17.052;2023-03-19T02:48:26;27.10;;;12.95;;
74309;SDS011;62722;51.142;17.052;2023-03-19T02:50:54;26.95;;;13.10;;
74309;SDS011;62722;51.142;17.052;2023-03-19T02:53:21;28.85;;;12.18;;
74309;SDS011;62722;51.142;17.052;2023-03-19T02:55:49;27.45;;;12.32;;
74309;SDS011;62722;51.142;17.052;2023-03-19T02:58:17;28.98;;;13.23;;
74309;SDS011;62722;51.142;17.052;2023-03-19T03:00:45;33.03;;;13.32;;
74309;SDS011;62722;51.142;17.052;2023-03-19T03:03:13;26.85;;;13.52;;
74309;SDS011;62722;51.142;17.052;2023-03-19T03:05:40;27.55;;;13.57;;
74309;SDS011;62722;51.142;17.052;2023-03-19T03:08:07;31.67;;;12.48;;
74309;SDS011;62722;51.142;17.052;2023-03-19T03:10:35;31.33;;;13.38;;
74309;SDS011;62722;51.142;17.052;2023-03-19T03:13:02;30.58;;;13.50;;
74309;SDS011;62722;51.142;17.052;2023-03-19T03:15:31;32.72;;;12.85;;
74309;SDS011;62722;51.142;17.052;2023-03-19T03:17:59;34.53;;;14.00;;
74309;SDS011;62722;51.142;17.052;2023-03-19T03:20:26;26.13;;;12.77;;
74309;SDS011;62722;51.142;17.052;2023-03-19T03:22:53;31.40;;;13.40;;
74309;SDS011;62722;51.142;17.052;2023-03-19T03:25:21;26.45;;;12.02;;
74309;SDS011;62722;51.142;17.052;2023-03-19T03:27:48;30.73;;;13.60;;
74309;SDS011;62722;51.142;17.052;2023-03-19T03:30:16;26.90;;;12.30;;
74309;SDS011;62722;51.142;17.052;2023-03-19T03:32:46;31.95;;;12.98;;
74309;SDS011;62722;51.142;17.052;2023-03-19T03:35:13;27.35;;;12.90;;
74309;SDS011;62722;51.142;17.052;2023-03-19T03:37:46;26.70;;;12.68;;
74309;SDS011;62722;51.142;17.052;2023-03-19T03:40:14;29.00;;;12.52;;
74309;SDS011;62722;51.142;17.052;2023-03-19T03:42:41;28.85;;;13.07;;
74309;SDS011;62722;51.142;17.052;2023-03-19T03:45:10;26.70;;;11.77;;
74309;SDS011;62722;51.142;17.052;2023-03-19T03:47:37;30.75;;;13.35;;
74309;SDS011;62722;51.142;17.052;2023-03-19T03:50:07;31.63;;;12.98;;
74309;SDS011;62722;51.142;17.052;2023-03-19T03:52:37;29.08;;;13.93;;
74309;SDS011;62722;51.142;17.052;2023-03-19T03:55:06;28.05;;;13.13;;
74309;SDS011;62722;51.142;17.052;2023-03-19T03:57:34;29.35;;;13.35;;
74309;SDS011;62722;51.142;17.052;2023-03-19T04:00:02;30.25;;;13.20;;
74309;SDS011;62722;51.142;17.052;2023-03-19T04:02:30;32.75;;;13.70;;
74309;SDS011;62722;51.142;17.052;2023-03-19T04:04:57;30.08;;;12.80;;
74309;SDS011;62722;51.142;17.052;2023-03-19T04:07:26;30.30;;;14.35;;
74309;SDS011;62722;51.142;17.052;2023-03-19T04:09:55;31.17;;;14.98;;
74309;SDS011;62722;51.142;17.052;2023-03-19T04:12:23;34.25;;;13.13;;
74309;SDS011;62722;51.142;17.052;2023-03-19T04:14:51;31.63;;;13.45;;
74309;SDS011;62722;51.142;17.052;2023-03-19T04:17:18;29.65;;;13.93;;
74309;SDS011;62722;51.142;17.052;2023-03-19T04:19:45;28.58;;;13.48;;
74309;SDS011;62722;51.142;17.052;2023-03-19T04:22:12;28.70;;;13.27;;
74309;SDS011;62722;51.142;17.052;2023-03-19T04:24:42;31.48;;;12.65;;
74309;SDS011;62722;51.142;17.052;2023-03-19T04:27:09;29.58;;;13.38;;
74309;SDS011;62722;51.142;17.052;2023-03-19T04:29:37;31.95;;;13.93;;
74309;SDS011;62722;51.142;17.052;2023-03-19T04:32:05;27.85;;;13.93;;
74309;SDS011;62722;51.142;17.052;2023-03-19T04:34:33;26.80;;;12.63;;
74309;SDS011;62722;51.142;17.052;2023-03-19T04:37:00;29.13;;;12.65;;
74309;SDS011;62722;51.142;17.052;2023-03-19T04:39:28;34.45;;;14.18;;
74309;SDS011;62722;51.142;17.052;2023-03-19T04:41:57;29.60;;;12.95;;
74309;SDS011;62722;51.142;17.052;2023-03-19T04:44:25;31.17;;;13.15;;
74309;SDS011;62722;51.142;17.052;2023-03-19T04:46:52;30.92;;;13.32;;
74309;SDS011;62722;51.142;17.052;2023-03-19T04:49:20;32.22;;;13.52;;
74309;SDS011;62722;51.142;17.052;2023-03-19T04:51:47;26.90;;;13.02;;
74309;SDS011;62722;51.142;17.052;2023-03-19T04:54:15;28.27;;;12.68;;
74309;SDS011;62722;51.142;17.052;2023-03-19T04:56:42;29.52;;;13.05;;
74309;SDS011;62722;51.142;17.052;2023-03-19T04:59:11;29.33;;;12.27;;
74309;SDS011;62722;51.142;17.052;2023-03-19T05:01:38;24.70;;;11.77;;
74309;SDS011;62722;51.142;17.052;2023-03-19T05:04:05;30.00;;;13.25;;
74309;SDS011;62722;51.142;17.052;2023-03-19T05:06:32;28.55;;;12.70;;
74309;SDS011;62722;51.142;17.052;2023-03-19T05:09:01;30.30;;;12.70;;
74309;SDS011;62722;51.142;17.052;2023-03-19T05:11:29;26.95;;;12.30;;
74309;SDS011;62722;51.142;17.052;2023-03-19T05:13:56;26.98;;;13.05;;
74309;SDS011;62722;51.142;17.052;2023-03-19T05:16:25;28.92;;;12.88;;
74309;SDS011;62722;51.142;17.052;2023-03-19T05:18:52;27.23;;;13.00;;
74309;SDS011;62722;51.142;17.052;2023-03-19T05:21:19;26.83;;;12.10;;
74309;SDS011;62722;51.142;17.052;2023-03-19T05:23:47;25.38;;;13.02;;
74309;SDS011;62722;51.142;17.052;2023-03-19T05:26:17;27.15;;;11.95;;
74309;SDS011;62722;51.142;17.052;2023-03-19T05:28:44;25.80;;;13.02;;
74309;SDS011;62722;51.142;17.052;2023-03-19T05:31:11;25.10;;;12.82;;
74309;SDS011;62722;51.142;17.052;2023-03-19T05:33:41;29.10;;;12.32;;
74309;SDS011;62722;51.142;17.052;2023-03-19T05:36:08;30.17;;;13.55;;
74309;SDS011;62722;51.142;17.052;2023-03-19T05:38:35;30.42;;;13.07;;
74309;SDS011;62722;51.142;17.052;2023-03-19T05:41:03;31.00;;;13.25;;
74309;SDS011;62722;51.142;17.052;2023-03-19T05:43:32;26.65;;;12.30;;
74309;SDS011;62722;51.142;17.052;2023-03-19T05:45:59;24.65;;;12.45;;
74309;SDS011;62722;51.142;17.052;2023-03-19T05:48:26;24.73;;;11.75;;
74309;SDS011;62722;51.142;17.052;2023-03-19T05:50:55;31.45;;;12.77;;
74309;SDS011;62722;51.142;17.052;2023-03-19T05:53:24;27.35;;;13.10;;
74309;SDS011;62722;51.142;17.052;2023-03-19T05:55:51;29.80;;;12.25;;
74309;SDS011;62722;51.142;17.052;2023-03-19T05:58:19;29.83;;;12.27;;
74309;SDS011;62722;51.142;17.052;2023-03-19T06:00:46;28.02;;;11.50;;
74309;SDS011;62722;51.142;17.052;2023-03-19T06:03:14;26.27;;;12.30;;
74309;SDS011;62722;51.142;17.052;2023-03-19T06:05:41;25.05;;;12.40;;
74309;SDS011;62722;51.142;17.052;2023-03-19T06:08:10;24.75;;;10.88;;
74309;SDS011;62722;51.142;17.052;2023-03-19T06:10:40;28.27;;;12.48;;
74309;SDS011;62722;51.142;17.052;2023-03-19T06:13:07;22.90;;;11.15;;
74309;SDS011;62722;51.142;17.052;2023-03-19T06:15:35;23.58;;;10.45;;
74309;SDS011;62722;51.142;17.052;2023-03-19T06:18:02;25.05;;;11.55;;
74309;SDS011;62722;51.142;17.052;2023-03-19T06:20:30;21.42;;;11.23;;
74309;SDS011;62722;51.142;17.052;2023-03-19T06:22:57;22.40;;;11.10;;
74309;SDS011;62722;51.142;17.052;2023-03-19T06:25:26;22.92;;;10.45;;
74309;SDS011;62722;51.142;17.052;2023-03-19T06:27:54;22.67;;;10.88;;
74309;SDS011;62722;51.142;17.052;2023-03-19T06:30:21;22.42;;;10.25;;
74309;SDS011;62722;51.142;17.052;2023-03-19T06:32:48;21.55;;;11.25;;
74309;SDS011;62722;51.142;17.052;2023-03-19T06:35:16;25.55;;;11.15;;
74309;SDS011;62722;51.142;17.052;2023-03-19T06:37:44;20.27;;;10.77;;
74309;SDS011;62722;51.142;17.052;2023-03-19T06:40:12;21.70;;;10.38;;
74309;SDS011;62722;51.142;17.052;2023-03-19T06:42:41;24.48;;;10.95;;
74309;SDS011;62722;51.142;17.052;2023-03-19T06:45:11;24.75;;;11.23;;
74309;SDS011;62722;51.142;17.052;2023-03-19T06:47:40;21.63;;;10.57;;
74309;SDS011;62722;51.142;17.052;2023-03-19T06:50:09;20.83;;;10.60;;
74309;SDS011;62722;51.142;17.052;2023-03-19T06:52:38;20.80;;;9.68;;
74309;SDS011;62722;51.142;17.052;2023-03-19T06:55:05;23.48;;;10.40;;
74309;SDS011;62722;51.142;17.052;2023-03-19T06:57:34;24.77;;;10.93;;
74309;SDS011;62722;51.142;17.052;2023-03-19T07:00:03;23.73;;;10.88;;
74309;SDS011;62722;51.142;17.052;2023-03-19T07:02:31;22.75;;;11.43;;
74309;SDS011;62722;51.142;17.052;2023-03-19T07:04:59;26.63;;;10.65;;
74309;SDS011;62722;51.142;17.052;2023-03-19T07:07:26;26.38;;;10.75;;
74309;SDS011;62722;51.142;17.052;2023-03-19T07:09:54;23.63;;;10.40;;
74309;SDS011;62722;51.142;17.052;2023-03-19T07:12:21;25.90;;;11.02;;
74309;SDS011;62722;51.142;17.052;2023-03-19T07:14:52;22.42;;;10.13;;
74309;SDS011;62722;51.142;17.052;2023-03-19T07:17:22;21.90;;;10.18;;
74309;SDS011;62722;51.142;17.052;2023-03-19T07:19:50;23.33;;;10.98;;
74309;SDS011;62722;51.142;17.052;2023-03-19T07:22:17;21.65;;;9.75;;
74309;SDS011;62722;51.142;17.052;2023-03-19T07:24:44;20.35;;;9.52;;
74309;SDS011;62722;51.142;17.052;2023-03-19T07:27:12;22.90;;;10.38;;
74309;SDS011;62722;51.142;17.052;2023-03-19T07:29:39;23.13;;;9.50;;
74309;SDS011;62722;51.142;17.052;2023-03-19T07:32:07;21.38;;;9.32;;
74309;SDS011;62722;51.142;17.052;2023-03-19T07:34:36;19.83;;;9.35;;
74309;SDS011;62722;51.142;17.052;2023-03-19T07:37:04;21.65;;;9.57;;
74309;SDS011;62722;51.142;17.052;2023-03-19T07:39:31;24.30;;;10.63;;
74309;SDS011;62722;51.142;17.052;2023-03-19T07:41:59;19.02;;;9.15;;
74309;SDS011;62722;51.142;17.052;2023-03-19T07:44:26;19.10;;;10.05;;
74309;SDS011;62722;51.142;17.052;2023-03-19T07:46:54;20.77;;;9.25;;
74309;SDS011;62722;51.142;17.052;2023-03-19T07:49:21;18.58;;;9.07;;
74309;SDS011;62722;51.142;17.052;2023-03-19T07:51:51;20.52;;;9.63;;
74309;SDS011;62722;51.142;17.052;2023-03-19T07:54:18;18.58;;;9.57;;
74309;SDS011;62722;51.142;17.052;2023-03-19T07:56:46;18.13;;;9.05;;
74309;SDS011;62722;51.142;17.052;2023-03-19T07:59:13;19.05;;;9.48;;
74309;SDS011;62722;51.142;17.052;2023-03-19T08:01:41;17.10;;;8.98;;
74309;SDS011;62722;51.142;17.052;2023-03-19T08:04:08;15.50;;;8.82;;
74309;SDS011;62722;51.142;17.052;2023-03-19T08:06:36;15.98;;;9.23;;
74309;SDS011;62722;51.142;17.052;2023-03-19T08:09:05;17.58;;;9.07;;
74309;SDS011;62722;51.142;17.052;2023-03-19T08:11:34;17.35;;;8.68;;
74309;SDS011;62722;51.142;17.052;2023-03-19T08:14:01;16.05;;;8.77;;
74309;SDS011;62722;51.142;17.052;2023-03-19T08:16:29;18.25;;;8.75;;
74309;SDS011;62722;51.142;17.052;2023-03-19T08:18:57;19.63;;;8.65;;
74309;SDS011;62722;51.142;17.052;2023-03-19T08:21:25;17.90;;;9.23;;
74309;SDS011;62722;51.142;17.052;2023-03-19T08:23:53;17.10;;;8.93;;
74309;SDS011;62722;51.142;17.052;2023-03-19T08:26:22;16.30;;;8.75;;
74309;SDS011;62722;51.142;17.052;2023-03-19T08:28:50;18.50;;;9.13;;
74309;SDS011;62722;51.142;17.052;2023-03-19T08:31:18;14.73;;;7.88;;
74309;SDS011;62722;51.142;17.052;2023-03-19T08:33:45;17.05;;;8.45;;
74309;SDS011;62722;51.142;17.052;2023-03-19T08:36:13;15.85;;;8.23;;
74309;SDS011;62722;51.142;17.052;2023-03-19T08:38:40;14.50;;;7.88;;
74309;SDS011;62722;51.142;17.052;2023-03-19T08:41:08;15.25;;;7.72;;
74309;SDS011;62722;51.142;17.052;2023-03-19T08:43:37;13.05;;;7.90;;
74309;SDS011;62722;51.142;17.052;2023-03-19T08:46:05;17.83;;;8.45;;
74309;SDS011;62722;51.142;17.052;2023-03-19T08:48:32;19.50;;;8.27;;
74309;SDS011;62722;51.142;17.052;2023-03-19T08:51:00;16.70;;;8.65;;
74309;SDS011;62722;51.142;17.052;2023-03-19T08:53:29;13.63;;;7.85;;
74309;SDS011;62722;51.142;17.052;2023-03-19T08:55:57;18.08;;;9.43;;
74309;SDS011;62722;51.142;17.052;2023-03-19T08:58:25;14.52;;;8.27;;
74309;SDS011;62722;51.142;17.052;2023-03-19T09:01:00;15.73;;;8.13;;
74309;SDS011;62722;51.142;17.052;2023-03-19T09:03:28;16.25;;;8.20;;
74309;SDS011;62722;51.142;17.052;2023-03-19T09:05:57;14.80;;;7.78;;
74309;SDS011;62722;51.142;17.052;2023-03-19T09:08:26;15.43;;;7.53;;
74309;SDS011;62722;51.142;17.052;2023-03-19T09:10:54;15.25;;;7.60;;
74309;SDS011;62722;51.142;17.052;2023-03-19T09:13:21;16.67;;;8.88;;
74309;SDS011;62722;51.142;17.052;2023-03-19T09:15:49;15.50;;;8.10;;
74309;SDS011;62722;51.142;17.052;2023-03-19T09:18:18;13.55;;;7.47;;
74309;SDS011;62722;51.142;17.052;2023-03-19T09:20:48;14.95;;;7.75;;
74309;SDS011;62722;51.142;17.052;2023-03-19T09:23:16;15.15;;;8.60;;
74309;SDS011;62722;51.142;17.052;2023-03-19T09:25:43;16.33;;;7.95;;
74309;SDS011;62722;51.142;17.052;2023-03-19T09:28:11;12.90;;;7.78;;
74309;SDS011;62722;51.142;17.052;2023-03-19T09:30:38;16.52;;;8.27;;
74309;SDS011;62722;51.142;17.052;2023-03-19T09:33:06;14.68;;;7.18;;
74309;SDS011;62722;51.142;17.052;2023-03-19T09:35:35;14.63;;;7.93;;
74309;SDS011;62722;51.142;17.052;2023-03-19T09:38:04;16.38;;;7.25;;
74309;SDS011;62722;51.142;17.052;2023-03-19T09:40:33;14.02;;;7.18;;
74309;SDS011;62722;51.142;17.052;2023-03-19T09:43:08;13.80;;;7.30;;
74309;SDS011;62722;51.142;17.052;2023-03-19T09:46:02;13.88;;;7.28;;
74309;SDS011;62722;51.142;17.052;2023-03-19T09:48:38;14.30;;;7.22;;
74309;SDS011;62722;51.142;17.052;2023-03-19T09:51:16;11.95;;;6.88;;
74309;SDS011;62722;51.142;17.052;2023-03-19T09:53:48;15.85;;;7.28;;
74309;SDS011;62722;51.142;17.052;2023-03-19T09:56:23;13.05;;;6.47;;
74309;SDS011;62722;51.142;17.052;2023-03-19T09:58:53;11.55;;;6.63;;
74309;SDS011;62722;51.142;17.052;2023-03-19T10:01:25;12.85;;;7.03;;
74309;SDS011;62722;51.142;17.052;2023-03-19T10:07:06;11.05;;;6.22;;
74309;SDS011;62722;51.142;17.052;2023-03-19T10:09:42;11.88;;;6.18;;
74309;SDS011;62722;51.142;17.052;2023-03-19T10:12:21;14.07;;;6.05;;
74309;SDS011;62722;51.142;17.052;2023-03-19T10:15:03;10.93;;;6.03;;
74309;SDS011;62722;51.142;17.052;2023-03-19T10:17:51;10.77;;;6.05;;
74309;SDS011;62722;51.142;17.052;2023-03-19T10:20:35;15.82;;;7.07;;
74309;SDS011;62722;51.142;17.052;2023-03-19T10:23:28;12.85;;;6.10;;
74309;SDS011;62722;51.142;17.052;2023-03-19T10:26:46;10.77;;;5.93;;
74309;SDS011;62722;51.142;17.052;2023-03-19T10:29:22;11.55;;;5.57;;
74309;SDS011;62722;51.142;17.052;2023-03-19T10:31:51;12.48;;;5.82;;
74309;SDS011;62722;51.142;17.052;2023-03-19T10:34:27;11.57;;;5.65;;
74309;SDS011;62722;51.142;17.052;2023-03-19T10:37:26;9.43;;;5.60;;
74309;SDS011;62722;51.142;17.052;2023-03-19T10:39:55;13.10;;;5.75;;
74309;SDS011;62722;51.142;17.052;2023-03-19T10:42:36;10.77;;;5.55;;
74309;SDS011;62722;51.142;17.052;2023-03-19T10:45:10;11.32;;;5.85;;
74309;SDS011;62722;51.142;17.052;2023-03-19T10:47:48;10.27;;;5.50;;
74309;SDS011;62722;51.142;17.052;2023-03-19T10:50:18;10.15;;;5.32;;
74309;SDS011;62722;51.142;17.052;2023-03-19T10:52:48;12.98;;;5.50;;
74309;SDS011;62722;51.142;17.052;2023-03-19T10:55:22;11.10;;;5.72;;
74309;SDS011;62722;51.142;17.052;2023-03-19T10:57:55;11.18;;;6.32;;
74309;SDS011;62722;51.142;17.052;2023-03-19T11:00:30;9.57;;;5.80;;
74309;SDS011;62722;51.142;17.052;2023-03-19T11:03:00;9.98;;;6.10;;
74309;SDS011;62722;51.142;17.052;2023-03-19T11:05:30;8.43;;;5.55;;
74309;SDS011;62722;51.142;17.052;2023-03-19T11:08:00;10.30;;;5.88;;
74309;SDS011;62722;51.142;17.052;2023-03-19T11:10:31;12.50;;;6.03;;
74309;SDS011;62722;51.142;17.052;2023-03-19T11:15:32;9.50;;;5.45;;
74309;SDS011;62722;51.142;17.052;2023-03-19T11:18:04;10.55;;;5.10;;
74309;SDS011;62722;51.142;17.052;2023-03-19T11:20:34;9.95;;;5.57;;
74309;SDS011;62722;51.142;17.052;2023-03-19T11:23:05;10.80;;;5.82;;
74309;SDS011;62722;51.142;17.052;2023-03-19T11:25:40;9.85;;;5.97;;
74309;SDS011;62722;51.142;17.052;2023-03-19T11:28:12;10.25;;;5.50;;
74309;SDS011;62722;51.142;17.052;2023-03-19T11:30:44;10.90;;;5.60;;
74309;SDS011;62722;51.142;17.052;2023-03-19T11:33:22;10.82;;;5.10;;
74309;SDS011;62722;51.142;17.052;2023-03-19T11:36:04;9.57;;;5.55;;
74309;SDS011;62722;51.142;17.052;2023-03-19T11:38:40;10.07;;;5.85;;
74309;SDS011;62722;51.142;17.052;2023-03-19T11:41:24;10.55;;;5.60;;
74309;SDS011;62722;51.142;17.052;2023-03-19T11:44:00;10.63;;;5.65;;
74309;SDS011;62722;51.142;17.052;2023-03-19T11:46:42;10.75;;;5.35;;
74309;SDS011;62722;51.142;17.052;2023-03-19T11:49:21;10.57;;;6.10;;
74309;SDS011;62722;51.142;17.052;2023-03-19T11:52:01;8.02;;;5.22;;
74309;SDS011;62722;51.142;17.052;2023-03-19T11:54:38;11.10;;;5.78;;
74309;SDS011;62722;51.142;17.052;2023-03-19T11:57:19;10.30;;;6.57;;
74309;SDS011;62722;51.142;17.052;2023-03-19T12:00:02;9.63;;;5.40;;
74309;SDS011;62722;51.142;17.052;2023-03-19T12:05:52;10.57;;;5.75;;
74309;SDS011;62722;51.142;17.052;2023-03-19T12:08:26;10.63;;;5.95;;
74309;SDS011;62722;51.142;17.052;2023-03-19T12:11:05;12.48;;;7.28;;
74309;SDS011;62722;51.142;17.052;2023-03-19T12:14:03;11.48;;;6.15;;
74309;SDS011;62722;51.142;17.052;2023-03-19T12:16:41;11.20;;;6.45;;
74309;SDS011;62722;51.142;17.052;2023-03-19T12:19:35;12.68;;;7.15;;
74309;SDS011;62722;51.142;17.052;2023-03-19T12:22:12;12.82;;;7.03;;
74309;SDS011;62722;51.142;17.052;2023-03-19T12:24:54;11.70;;;6.53;;
74309;SDS011;62722;51.142;17.052;2023-03-19T12:27:31;12.77;;;7.03;;
74309;SDS011;62722;51.142;17.052;2023-03-19T12:30:12;11.70;;;6.30;;
74309;SDS011;62722;51.142;17.052;2023-03-19T12:32:53;11.88;;;6.75;;
74309;SDS011;62722;51.142;17.052;2023-03-19T12:35:42;11.20;;;6.93;;
74309;SDS011;62722;51.142;17.052;2023-03-19T12:38:16;13.68;;;7.70;;
74309;SDS011;62722;51.142;17.052;2023-03-19T12:40:50;13.13;;;7.03;;
74309;SDS011;62722;51.142;17.052;2023-03-19T12:43:23;11.30;;;6.13;;
74309;SDS011;62722;51.142;17.052;2023-03-19T12:45:56;10.68;;;5.90;;
74309;SDS011;62722;51.142;17.052;2023-03-19T12:48:29;12.70;;;6.72;;
74309;SDS011;62722;51.142;17.052;2023-03-19T12:51:07;12.02;;;6.32;;
74309;SDS011;62722;51.142;17.052;2023-03-19T12:53:42;10.80;;;6.15;;
74309;SDS011;62722;51.142;17.052;2023-03-19T12:56:16;11.43;;;6.72;;
74309;SDS011;62722;51.142;17.052;2023-03-19T12:58:52;12.20;;;6.90;;
74309;SDS011;62722;51.142;17.052;2023-03-19T13:01:28;11.63;;;6.50;;
74309;SDS011;62722;51.142;17.052;2023-03-19T13:04:02;11.77;;;7.22;;
74309;SDS011;62722;51.142;17.052;2023-03-19T13:06:36;13.05;;;7.35;;
74309;SDS011;62722;51.142;17.052;2023-03-19T13:09:51;10.50;;;6.20;;
74309;SDS011;62722;51.142;17.052;2023-03-19T13:12:25;13.27;;;6.70;;
74309;SDS011;62722;51.142;17.052;2023-03-19T13:14:57;11.18;;;6.13;;
74309;SDS011;62722;51.142;17.052;2023-03-19T13:17:34;10.95;;;6.65;;
74309;SDS011;62722;51.142;17.052;2023-03-19T13:20:23;13.98;;;7.03;;
74309;SDS011;62722;51.142;17.052;2023-03-19T13:22:58;11.13;;;6.65;;
74309;SDS011;62722;51.142;17.052;2023-03-19T13:25:30;10.82;;;6.35;;
74309;SDS011;62722;51.142;17.052;2023-03-19T13:28:01;12.27;;;5.90;;
74309;SDS011;62722;51.142;17.052;2023-03-19T13:30:35;10.15;;;6.22;;
74309;SDS011;62722;51.142;17.052;2023-03-19T13:33:06;11.77;;;6.80;;
74309;SDS011;62722;51.142;17.052;2023-03-19T13:35:43;13.15;;;6.78;;
74309;SDS011;62722;51.142;17.052;2023-03-19T13:38:16;12.77;;;7.22;;
74309;SDS011;62722;51.142;17.052;2023-03-19T13:40:46;12.25;;;6.43;;
74309;SDS011;62722;51.142;17.052;2023-03-19T13:46:35;11.32;;;7.25;;
74309;SDS011;62722;51.142;17.052;2023-03-19T13:52:41;11.63;;;6.68;;
74309;SDS011;62722;51.142;17.052;2023-03-19T13:57:58;11.27;;;6.22;;
74309;SDS011;62722;51.142;17.052;2023-03-19T14:00:55;11.52;;;6.65;;
74309;SDS011;62722;51.142;17.052;2023-03-19T14:03:23;11.25;;;6.43;;
74309;SDS011;62722;51.142;17.052;2023-03-19T14:05:55;10.48;;;6.13;;
74309;SDS011;62722;51.142;17.052;2023-03-19T14:08:24;10.20;;;5.88;;
74309;SDS011;62722;51.142;17.052;2023-03-19T14:10:55;11.80;;;6.18;;
74309;SDS011;62722;51.142;17.052;2023-03-19T14:13:26;9.98;;;6.00;;
74309;SDS011;62722;51.142;17.052;2023-03-19T14:16:04;12.20;;;6.88;;
74309;SDS011;62722;51.142;17.052;2023-03-19T14:18:39;11.63;;;6.55;;
74309;SDS011;62722;51.142;17.052;2023-03-19T14:21:12;10.65;;;6.30;;
74309;SDS011;62722;51.142;17.052;2023-03-19T14:23:41;12.23;;;6.30;;
74309;SDS011;62722;51.142;17.052;2023-03-19T14:26:19;9.60;;;5.80;;
74309;SDS011;62722;51.142;17.052;2023-03-19T14:28:54;10.10;;;5.82;;
74309;SDS011;62722;51.142;17.052;2023-03-19T14:31:27;10.60;;;5.95;;
74309;SDS011;62722;51.142;17.052;2023-03-19T14:34:05;11.70;;;6.28;;
74309;SDS011;62722;51.142;17.052;2023-03-19T14:36:48;10.73;;;6.35;;
74309;SDS011;62722;51.142;17.052;2023-03-19T14:39:21;13.88;;;7.05;;
74309;SDS011;62722;51.142;17.052;2023-03-19T14:41:50;11.45;;;6.90;;
74309;SDS011;62722;51.142;17.052;2023-03-19T14:47:40;11.27;;;5.80;;
74309;SDS011;62722;51.142;17.052;2023-03-19T14:50:26;11.30;;;6.38;;
74309;SDS011;62722;51.142;17.052;2023-03-19T14:53:18;11.88;;;6.70;;
74309;SDS011;62722;51.142;17.052;2023-03-19T14:55:51;11.27;;;6.88;;
74309;SDS011;62722;51.142;17.052;2023-03-19T14:58:19;10.15;;;6.00;;
74309;SDS011;62722;51.142;17.052;2023-03-19T15:00:48;12.55;;;5.88;;